Time;durP1;ratioP1;P1;durP2;ratioP2;P2;SDS_P1;SDS_P2;PMS_P1;PMS_P2;Temp;Humidity;BMP_temperature;BMP_pressure;BME280_temperature;BME280_humidity;BME280_pressure;Samples;Min_cycle;Max_cycle;Signal;HPM_P1;HPM_P2
2022/05/19 00:01:17;;;;;;;1.33;1.20;;;;;;;7.11;61.06;100450.03;4436980;32;36150;-71
2022/05/19 00:03:45;;;;;;;1.20;1.02;;;;;;;7.12;61.53;100447.50;4432991;32;33920;-73
2022/05/19 00:06:13;;;;;;;1.85;1.30;;;;;;;7.13;62.07;100450.94;4437954;32;33419;-72
2022/05/19 00:08:41;;;;;;;1.90;1.25;;;;;;;6.90;63.00;100442.69;4435168;32;33929;-72
2022/05/19 00:11:12;;;;;;;2.30;1.50;;;;;;;7.21;62.41;100446.81;4439457;32;34922;-72
2022/05/19 00:13:40;;;;;;;3.17;1.60;;;;;;;7.48;61.57;100446.50;4439256;32;35042;-72
2022/05/19 00:16:09;;;;;;;2.78;1.40;;;;;;;7.19;62.56;100444.19;4439225;32;33681;-73
2022/05/19 00:18:38;;;;;;;2.12;1.30;;;;;;;6.87;64.27;100455.59;4439089;32;34053;-72
2022/05/19 00:21:06;;;;;;;1.52;1.12;;;;;;;6.46;65.00;100451.22;4440041;32;35212;-72
2022/05/19 00:23:34;;;;;;;2.20;1.20;;;;;;;6.84;65.00;100457.25;4437332;32;34593;-73
2022/05/19 00:26:02;;;;;;;2.78;1.80;;;;;;;6.71;65.58;100444.03;4427534;32;33675;-72
2022/05/19 00:28:30;;;;;;;1.08;1.00;;;;;;;7.45;62.47;100445.56;4422754;32;34293;-72
2022/05/19 00:30:58;;;;;;;1.55;1.20;;;;;;;7.44;61.26;100446.41;4427171;32;35211;-73
2022/05/19 00:33:27;;;;;;;2.10;1.20;;;;;;;7.34;62.30;100455.69;4440470;32;33079;-79
2022/05/19 00:35:54;;;;;;;1.65;1.25;;;;;;;7.50;62.05;100455.19;4447943;32;33571;-72
2022/05/19 00:38:23;;;;;;;1.77;1.20;;;;;;;7.43;62.39;100453.31;4448806;32;33992;-72
2022/05/19 00:40:54;;;;;;;1.85;1.20;;;;;;;7.36;61.51;100452.31;4455345;32;35946;-72
2022/05/19 00:43:29;;;;;;;1.70;1.40;;;;;;;7.20;62.15;100452.84;4453252;32;35212;-74
2022/05/19 00:46:07;;;;;;;1.50;1.30;;;;;;;7.06;63.19;100452.56;4438817;32;33563;-72
2022/05/19 00:48:45;;;;;;;1.33;1.12;;;;;;;6.84;63.70;100462.41;4448171;32;33978;-73
2022/05/19 00:51:15;;;;;;;2.55;1.30;;;;;;;6.80;62.27;100449.41;4447121;32;35150;-73
2022/05/19 00:53:51;;;;;;;1.87;1.23;;;;;;;6.46;64.98;100451.22;4454221;32;35181;-74
2022/05/19 00:56:30;;;;;;;3.42;1.52;;;;;;;6.77;63.87;100450.19;4454229;32;34211;-72
2022/05/19 00:59:10;;;;;;;1.70;1.30;;;;;;;6.73;62.67;100452.69;4454297;32;34052;-72
2022/05/19 01:01:40;;;;;;;1.98;1.15;;;;;;;7.06;61.12;100452.56;4454320;32;35009;-72
2022/05/19 01:04:14;;;;;;;2.05;1.30;;;;;;;7.16;62.19;100444.13;4452558;32;34119;-72
2022/05/19 01:06:43;;;;;;;3.08;1.33;;;;;;;7.09;62.42;100441.38;4437819;32;33713;-72
2022/05/19 01:09:14;;;;;;;1.95;1.17;;;;;;;6.64;62.65;100441.28;4451466;32;33957;-73
2022/05/19 01:11:43;;;;;;;5.72;1.33;;;;;;;6.57;64.33;100441.97;4453956;32;34371;-73
2022/05/19 01:14:12;;;;;;;1.27;1.05;;;;;;;6.51;64.63;100447.03;4454241;32;33729;-72
2022/05/19 01:16:40;;;;;;;5.28;1.40;;;;;;;6.68;64.37;100446.53;4455152;32;33546;-76
2022/05/19 01:19:20;;;;;;;1.65;1.33;;;;;;;6.84;63.02;100444.31;4454205;32;33910;-74
2022/05/19 01:21:50;;;;;;;4.07;1.20;;;;;;;7.02;62.70;100438.66;4449106;32;35189;-73
2022/05/19 01:24:26;;;;;;;1.33;1.23;;;;;;;6.91;62.53;100439.28;4446364;32;34469;-72
2022/05/19 01:26:57;;;;;;;5.65;1.30;;;;;;;6.75;62.51;100438.94;4438392;32;34235;-79
2022/05/19 01:29:27;;;;;;;1.58;1.20;;;;;;;6.95;62.32;100439.38;4437687;32;34114;-72
2022/05/19 01:32:00;;;;;;;1.65;1.20;;;;;;;6.92;62.07;100439.31;4445836;32;34262;-80
2022/05/19 01:34:31;;;;;;;1.45;1.10;;;;;;;6.39;65.42;100441.56;4468994;32;34503;-72
2022/05/19 01:37:00;;;;;;;4.70;1.52;;;;;;;6.47;65.04;100436.56;4456676;32;34258;-72
2022/05/19 01:39:30;;;;;;;2.80;1.40;;;;;;;6.71;63.18;100438.84;4453567;32;33993;-72
2022/05/19 01:42:41;;;;;;;3.03;1.33;;;;;;;6.75;62.51;100438.94;4441367;32;35291;-73
2022/05/19 01:45:36;;;;;;;3.10;1.65;;;;;;;6.24;63.55;100437.72;4425849;32;34381;-72
2022/05/19 01:48:14;;;;;;;2.97;1.35;;;;;;;6.63;63.54;100436.91;4459312;32;33432;-72
2022/05/19 01:50:47;;;;;;;3.15;1.40;;;;;;;6.79;62.90;100432.09;4451430;32;34625;-73
2022/05/19 01:53:20;;;;;;;1.80;1.30;;;;;;;6.44;64.81;100442.50;4467445;32;35083;-72
2022/05/19 01:55:59;;;;;;;4.22;1.70;;;;;;;6.60;60.76;100442.06;4463062;32;34427;-72
2022/05/19 01:58:32;;;;;;;1.37;1.27;;;;;;;6.77;63.81;100444.13;4439649;32;33470;-73
2022/05/19 02:01:04;;;;;;;1.90;1.40;;;;;;;6.43;65.13;100445.94;4454073;32;34749;-72
2022/05/19 02:03:32;;;;;;;3.12;1.50;;;;;;;6.26;65.41;100450.72;4448087;32;35942;-72
2022/05/19 02:06:27;;;;;;;3.00;1.48;;;;;;;6.56;63.11;100445.38;4454509;32;35138;-73
2022/05/19 02:09:06;;;;;;;2.00;1.12;;;;;;;6.33;64.18;100449.16;4450221;32;32951;-72
2022/05/19 02:11:39;;;;;;;1.23;1.12;;;;;;;6.89;63.05;100454.78;4444515;32;34767;-72
2022/05/19 02:14:10;;;;;;;1.60;1.20;;;;;;;6.59;64.22;100453.22;4435895;32;34030;-72
2022/05/19 02:16:39;;;;;;;2.67;1.30;;;;;;;5.79;67.00;100448.62;4440994;32;35241;-73
2022/05/19 02:19:09;;;;;;;3.22;1.45;;;;;;;5.75;67.75;100445.91;4465445;32;34263;-73
2022/05/19 02:21:36;;;;;;;4.35;1.55;;;;;;;6.52;64.82;100448.75;4456281;32;34054;-73
2022/05/19 02:24:06;;;;;;;2.58;1.62;;;;;;;6.44;65.31;100445.09;4468596;32;34816;-72
2022/05/19 02:26:38;;;;;;;4.22;1.37;;;;;;;6.64;63.41;100446.44;4447413;32;34475;-73
2022/05/19 02:29:09;;;;;;;2.53;1.52;;;;;;;6.39;64.83;100441.56;4450530;32;33419;-72
2022/05/19 02:31:42;;;;;;;4.60;1.62;;;;;;;5.66;68.83;100446.56;4456131;32;34754;-72
2022/05/19 02:34:10;;;;;;;2.58;1.50;;;;;;;5.91;68.55;100452.38;4441441;32;34994;-79
2022/05/19 02:36:39;;;;;;;1.27;1.17;;;;;;;6.63;64.54;100457.63;4454371;32;34474;-76
2022/05/19 02:39:08;;;;;;;1.75;1.17;;;;;;;6.20;65.39;100461.78;4464369;32;33522;-75
2022/05/19 02:41:37;;;;;;;4.05;1.17;;;;;;;6.26;66.56;100464.53;4440884;32;33957;-72
2022/05/19 02:44:06;;;;;;;4.22;1.20;;;;;;;5.73;69.32;100469.12;4463858;32;34164;-72
2022/05/19 02:46:34;;;;;;;2.37;1.45;;;;;;;4.90;72.47;100467.63;4443199;32;35104;-72
2022/05/19 02:49:03;;;;;;;3.65;1.85;;;;;;;4.64;74.00;100469.44;4442004;32;33838;-71
2022/05/19 02:51:31;;;;;;;1.30;1.20;;;;;;;6.04;67.73;100462.25;4469855;32;34769;-76
2022/05/19 02:53:59;;;;;;;1.33;1.23;;;;;;;6.13;66.84;100469.34;4461721;32;34977;-79
2022/05/19 02:56:27;;;;;;;2.97;1.52;;;;;;;5.03;71.17;100468.00;4469580;32;34382;-79
2022/05/19 02:58:55;;;;;;;2.17;1.35;;;;;;;5.89;67.78;100467.84;4466563;32;33580;-71
2022/05/19 03:01:22;;;;;;;2.12;1.35;;;;;;;6.23;65.98;100466.19;4469551;32;34058;-71
2022/05/19 03:03:51;;;;;;;4.35;1.35;;;;;;;6.39;65.42;100464.84;4454127;32;35763;-71
2022/05/19 03:06:19;;;;;;;2.33;1.30;;;;;;;6.03;67.07;100473.41;4469604;32;35301;-72
2022/05/19 03:08:47;;;;;;;2.92;1.33;;;;;;;5.75;67.94;100472.62;4467891;32;33380;-73
2022/05/19 03:11:15;;;;;;;2.58;1.50;;;;;;;6.30;65.60;100475.84;4469691;32;33851;-71
2022/05/19 03:13:43;;;;;;;2.30;1.62;;;;;;;5.80;68.12;100473.63;4468090;32;35877;-74
2022/05/19 03:16:11;;;;;;;2.00;1.37;;;;;;;5.83;68.40;100481.47;4459654;32;34532;-76
2022/05/19 03:18:39;;;;;;;3.28;1.60;;;;;;;5.11;70.61;100472.56;4458823;32;33438;-79
2022/05/19 03:21:07;;;;;;;2.75;1.55;;;;;;;6.00;66.67;100478.50;4469463;32;34506;-80
2022/05/19 03:23:35;;;;;;;2.00;1.48;;;;;;;6.13;65.74;100475.41;4467785;32;35121;-79
2022/05/19 03:26:03;;;;;;;1.67;1.48;;;;;;;6.18;66.24;100470.34;4469225;32;34414;-79
2022/05/19 03:28:31;;;;;;;1.48;1.25;;;;;;;6.16;67.34;100475.47;4453735;32;33276;-80
2022/05/19 03:30:59;;;;;;;2.28;1.40;;;;;;;5.95;68.14;100485.22;4467795;32;34912;-79
2022/05/19 03:33:27;;;;;;;2.20;1.30;;;;;;;6.11;67.83;100487.41;4461799;32;35868;-79
2022/05/19 03:35:59;;;;;;;1.33;1.20;;;;;;;5.91;68.85;100488.56;4462293;32;34558;-80
2022/05/19 03:38:27;;;;;;;2.05;1.50;;;;;;;6.07;68.97;100493.31;4443651;32;34429;-80
2022/05/19 03:40:55;;;;;;;1.48;1.30;;;;;;;6.25;68.86;100491.22;4442294;32;32490;-79
2022/05/19 03:43:23;;;;;;;1.62;1.27;;;;;;;6.70;67.29;100494.03;4467381;32;34598;-80
2022/05/19 03:45:51;;;;;;;1.30;1.20;;;;;;;6.51;68.80;100500.47;4452109;32;34691;-79
2022/05/19 03:48:19;;;;;;;2.08;1.40;;;;;;;6.92;67.96;100497.97;4457943;32;33402;-78
2022/05/19 03:50:48;;;;;;;1.60;1.20;;;;;;;7.14;67.15;100496.75;4457038;32;33880;-77
2022/05/19 03:53:16;;;;;;;1.40;1.30;;;;;;;7.20;67.45;100502.94;4470049;32;35889;-79
2022/05/19 03:55:45;;;;;;;1.60;1.35;;;;;;;7.17;68.27;100500.28;4454106;32;35165;-72
2022/05/19 03:58:13;;;;;;;1.48;1.10;;;;;;;7.53;67.19;100498.41;4459767;32;33441;-72
2022/05/19 04:00:42;;;;;;;1.90;1.20;;;;;;;7.62;67.56;100501.19;4471183;32;33999;-73
2022/05/19 04:03:10;;;;;;;15.30;3.53;;;;;;;7.68;67.95;100501.31;4459597;32;35939;-72
2022/05/19 04:05:38;;;;;;;7.03;1.60;;;;;;;7.89;67.96;100507.78;4444262;32;34539;-73
2022/05/19 04:08:06;;;;;;;3.42;1.35;;;;;;;8.20;67.58;100510.94;4470176;32;34241;-72
2022/05/19 04:10:34;;;;;;;2.47;1.50;;;;;;;8.04;68.69;100505.44;4471164;32;34849;-72
2022/05/19 04:13:02;;;;;;;1.50;1.27;;;;;;;8.92;67.01;100510.41;4459191;32;34944;-73
2022/05/19 04:15:30;;;;;;;3.35;1.58;;;;;;;9.18;66.10;100515.09;4471126;32;34311;-80
2022/05/19 04:17:59;;;;;;;9.07;1.67;;;;;;;9.18;66.26;100517.72;4468281;32;33460;-79
2022/05/19 04:20:30;;;;;;;7.55;1.48;;;;;;;9.83;62.75;100514.19;4471175;32;33942;-73
2022/05/19 04:22:59;;;;;;;2.78;1.40;;;;;;;9.98;63.45;100518.66;4469913;32;35766;-80
2022/05/19 04:25:29;;;;;;;2.72;1.62;;;;;;;10.10;63.63;100524.87;4441952;32;35212;-73
2022/05/19 04:27:57;;;;;;;2.58;1.40;;;;;;;10.34;63.26;100527.75;4428341;32;33699;-76
2022/05/19 04:30:26;;;;;;;2.45;1.50;;;;;;;11.13;61.56;100525.72;4467037;32;33972;-73
2022/05/19 04:32:56;;;;;;;6.78;1.67;;;;;;;11.26;62.45;100531.87;4441108;32;35112;-74
2022/05/19 04:35:24;;;;;;;11.07;2.28;;;;;;;11.74;61.24;100519.94;4456265;32;34502;-73
2022/05/19 04:37:56;;;;;;;5.40;2.50;;;;;;;11.71;62.19;100519.94;4444449;32;33366;-74
2022/05/19 04:40:24;;;;;;;2.92;2.10;;;;;;;11.71;62.45;100519.94;4470161;32;32016;-73
2022/05/19 04:42:53;;;;;;;3.17;1.85;;;;;;;11.52;63.33;100525.09;4470878;32;34949;-73
2022/05/19 04:45:21;;;;;;;3.83;2.10;;;;;;;12.23;62.61;100513.97;4469369;32;34583;-73
2022/05/19 04:47:50;;;;;;;4.03;2.00;;;;;;;12.60;62.02;100525.34;4456905;32;34233;-73
2022/05/19 04:50:17;;;;;;;5.82;2.28;;;;;;;13.04;60.15;100516.59;4458811;32;34054;-80
2022/05/19 04:52:47;;;;;;;5.07;1.85;;;;;;;13.36;60.04;100520.91;4455168;32;34908;-81
2022/05/19 04:55:15;;;;;;;3.33;1.62;;;;;;;13.15;59.59;100519.19;4462381;32;34455;-81
2022/05/19 04:57:44;;;;;;;4.50;1.80;;;;;;;12.66;58.71;100525.34;4470723;32;33431;-78
2022/05/19 05:00:14;;;;;;;3.42;1.70;;;;;;;13.49;58.30;100518.25;4470909;32;33877;-80
2022/05/19 05:02:42;;;;;;;3.17;1.50;;;;;;;13.78;56.04;100516.38;4444050;32;34914;-81
2022/05/19 05:05:10;;;;;;;2.67;1.40;;;;;;;13.67;57.78;100520.78;4469975;32;34444;-74
2022/05/19 05:07:38;;;;;;;3.35;1.50;;;;;;;14.20;55.94;100519.59;4446048;32;33297;-73
2022/05/19 05:10:07;;;;;;;3.78;1.70;;;;;;;14.58;51.12;100523.72;4466686;32;34016;-81
2022/05/19 05:12:35;;;;;;;4.82;1.90;;;;;;;15.81;47.74;100528.59;4470587;32;35039;-73
2022/05/19 05:15:03;;;;;;;3.20;1.37;;;;;;;16.11;47.25;100522.03;4468924;32;34297;-72
2022/05/19 05:17:32;;;;;;;6.43;1.42;;;;;;;16.01;46.87;100516.06;4470991;32;34374;-72
2022/05/19 05:19:59;;;;;;;4.32;2.30;;;;;;;15.87;48.00;100529.38;4440225;32;34085;-72
2022/05/19 05:22:30;;;;;;;9.55;2.83;;;;;;;15.90;49.76;100528.44;4454368;32;35923;-74
2022/05/19 05:24:58;;;;;;;5.68;1.85;;;;;;;15.65;49.96;100525.25;4464826;32;34388;-82
2022/05/19 05:27:26;;;;;;;5.55;2.10;;;;;;;15.90;49.32;100534.59;4457107;32;33404;-83
2022/05/19 05:29:54;;;;;;;3.20;1.75;;;;;;;15.79;48.14;100535.63;4463947;32;33599;-81
2022/05/19 05:32:22;;;;;;;3.42;1.95;;;;;;;16.03;48.42;100543.16;4469160;32;35899;-84
2022/05/19 05:34:50;;;;;;;3.85;1.75;;;;;;;16.28;46.59;100543.69;4434389;32;34366;-82
2022/05/19 05:37:18;;;;;;;3.80;1.70;;;;;;;17.00;47.47;100546.06;4440402;32;33474;-73
2022/05/19 05:39:47;;;;;;;3.72;1.73;;;;;;;17.58;45.88;100544.09;4454830;32;34925;-83
2022/05/19 05:42:14;;;;;;;4.70;1.92;;;;;;;17.29;45.38;100544.66;4439722;32;35121;-80
2022/05/19 05:44:42;;;;;;;5.40;2.00;;;;;;;18.16;44.95;100548.16;4455149;32;35181;-72
2022/05/19 05:47:10;;;;;;;8.25;2.10;;;;;;;17.22;46.35;100547.41;4470459;32;33409;-72
2022/05/19 05:49:38;;;;;;;5.28;1.90;;;;;;;18.21;43.42;100555.94;4462243;32;33973;-72
2022/05/19 05:52:07;;;;;;;9.70;2.45;;;;;;;17.47;43.44;100552.22;4469087;32;35851;-71
2022/05/19 05:54:35;;;;;;;6.30;2.20;;;;;;;18.67;45.73;100554.88;4446642;32;34078;-70
2022/05/19 05:57:04;;;;;;;4.80;2.35;;;;;;;17.83;43.78;100549.72;4454824;32;34261;-70
2022/05/19 05:59:32;;;;;;;9.13;2.53;;;;;;;18.07;45.83;100558.00;4460779;32;34071;-70
2022/05/19 06:02:00;;;;;;;4.43;2.42;;;;;;;17.67;43.25;100548.31;4458137;32;34957;-70
2022/05/19 06:04:28;;;;;;;4.60;1.95;;;;;;;18.31;43.98;100552.19;4454379;32;34416;-70
2022/05/19 06:06:56;;;;;;;7.18;2.10;;;;;;;19.10;42.48;100548.50;4440560;32;34511;-71
2022/05/19 06:09:24;;;;;;;5.18;2.12;;;;;;;18.90;43.84;100548.16;4458958;32;33973;-71
2022/05/19 06:11:52;;;;;;;4.40;2.35;;;;;;;19.95;39.77;100542.66;4462526;32;35764;-71
2022/05/19 06:14:20;;;;;;;4.00;2.42;;;;;;;20.75;38.06;100545.41;4458846;32;34562;-71
2022/05/19 06:16:48;;;;;;;4.53;2.45;;;;;;;21.19;38.46;100540.38;4470246;32;33349;-70
2022/05/19 06:19:18;;;;;;;6.68;2.83;;;;;;;21.07;38.95;100552.28;4468839;32;33977;-70
2022/05/19 06:21:46;;;;;;;9.25;2.50;;;;;;;21.60;37.65;100535.41;4470093;32;35893;-71
2022/05/19 06:24:14;;;;;;;5.80;2.47;;;;;;;21.74;37.85;100538.37;4468666;32;34554;-71
2022/05/19 06:26:43;;;;;;;4.50;2.20;;;;;;;21.60;32.01;100551.31;4463464;32;34231;-71
2022/05/19 06:29:11;;;;;;;5.80;2.50;;;;;;;22.44;29.74;100552.47;4457784;32;34006;-71
2022/05/19 06:31:39;;;;;;;4.68;2.50;;;;;;;21.47;33.26;100550.00;4470015;32;35145;-70
2022/05/19 06:34:10;;;;;;;8.57;3.95;;;;;;;21.82;32.67;100550.50;4468796;32;34344;-71
2022/05/19 06:36:43;;;;;;;6.57;2.45;;;;;;;22.94;28.65;100553.09;4470160;32;33543;-71
2022/05/19 06:39:11;;;;;;;7.15;3.30;;;;;;;22.23;27.43;100550.66;4461127;32;34716;-71
2022/05/19 06:44:37;;;;;;;5.65;1.80;;;;;;;22.47;27.40;100548.84;4444439;32;32843;-71
2022/05/19 06:47:10;;;;;;;3.95;1.65;;;;;;;23.41;27.15;100556.38;4470108;32;33555;-71
2022/05/19 06:49:44;;;;;;;5.00;1.80;;;;;;;22.71;24.89;100547.84;4439948;32;33966;-72
2022/05/19 06:52:13;;;;;;;3.83;1.83;;;;;;;22.01;26.23;100551.50;4440598;32;34966;-71
2022/05/19 06:54:46;;;;;;;3.85;1.90;;;;;;;22.65;26.34;100555.19;4443458;32;35192;-72
2022/05/19 06:57:15;;;;;;;3.55;1.42;;;;;;;22.60;25.68;100550.06;4440530;32;34306;-71
2022/05/19 06:59:43;;;;;;;2.85;1.55;;;;;;;21.78;27.75;100550.59;4452776;32;33061;-71
2022/05/19 07:02:11;;;;;;;5.22;1.92;;;;;;;22.58;29.50;100557.22;4440400;32;35831;-71
2022/05/19 07:04:41;;;;;;;5.65;1.87;;;;;;;23.04;26.78;100557.09;4442345;32;33917;-71
2022/05/19 07:07:10;;;;;;;3.28;1.50;;;;;;;23.41;24.08;100553.69;4469971;32;34363;-71
2022/05/19 07:09:39;;;;;;;3.08;1.62;;;;;;;23.19;23.43;100558.22;4468032;32;34811;-71
2022/05/19 07:12:09;;;;;;;6.30;1.52;;;;;;;22.72;26.95;100559.31;4460200;32;35184;-71
2022/05/19 07:14:37;;;;;;;3.03;1.70;;;;;;;22.18;24.74;100556.13;4434208;32;34393;-70
2022/05/19 07:17:05;;;;;;;4.53;1.87;;;;;;;23.53;22.00;100552.31;4469698;32;33335;-71
2022/05/19 07:22:25;;;;;;;2.40;1.12;;;;;;;22.95;25.62;100558.34;4471624;32;35096;-70
2022/05/19 07:24:53;;;;;;;6.72;1.10;;;;;;;23.39;25.51;100558.22;4469838;32;34547;-70
2022/05/19 07:27:21;;;;;;;2.75;0.90;;;;;;;23.51;25.38;100551.50;4463392;32;34184;-71
2022/05/19 07:29:49;;;;;;;1.85;1.00;;;;;;;22.84;25.47;100561.47;4446939;32;34684;-71
2022/05/19 07:32:21;;;;;;;2.47;1.10;;;;;;;23.47;25.40;100548.13;4453671;32;35023;-71
2022/05/19 07:34:49;;;;;;;4.10;1.20;;;;;;;23.78;25.46;100552.03;4455802;32;35252;-71
2022/05/19 07:37:17;;;;;;;3.67;1.10;;;;;;;24.24;27.29;100559.69;4457488;32;33566;-71
2022/05/19 07:39:45;;;;;;;4.90;1.27;;;;;;;23.27;24.37;100553.47;4470217;32;35046;-71
2022/05/19 07:42:14;;;;;;;2.37;1.37;;;;;;;23.64;26.62;100551.81;4457342;32;35012;-71
2022/05/19 07:44:42;;;;;;;3.72;1.65;;;;;;;23.48;24.05;100556.97;4441874;32;34547;-71
2022/05/19 07:47:10;;;;;;;2.53;1.62;;;;;;;24.44;24.06;100549.84;4458813;32;33760;-71
2022/05/19 07:49:38;;;;;;;5.40;1.80;;;;;;;25.07;21.41;100547.56;4458464;32;33918;-71
2022/05/19 07:52:07;;;;;;;2.60;1.40;;;;;;;25.01;19.37;100549.69;4471320;32;35815;-71
2022/05/19 07:54:35;;;;;;;2.53;1.33;;;;;;;24.17;22.07;100550.25;4455868;32;35222;-72
2022/05/19 07:57:05;;;;;;;3.25;1.50;;;;;;;24.25;24.97;100550.78;4454283;32;31953;-70
2022/05/19 07:59:34;;;;;;;2.60;1.17;;;;;;;23.41;24.05;100547.53;4453657;32;33977;-71
2022/05/19 08:02:03;;;;;;;2.40;1.30;;;;;;;24.20;21.33;100552.78;4451814;32;35882;-71
2022/05/19 08:04:31;;;;;;;2.87;0.90;;;;;;;23.62;22.52;100546.56;4455400;32;34344;-71
2022/05/19 08:07:01;;;;;;;6.93;1.62;;;;;;;24.57;19.35;100551.03;4470434;32;33358;-71
2022/05/19 08:15:34;;;;;;;2.40;1.10;;;;;;;24.55;22.58;100553.75;4471203;32;35067;-71
2022/05/19 08:17:56;;;;;;;2.47;1.20;;;;;;;23.42;21.87;100551.94;4458399;32;34315;-71
2022/05/19 08:20:23;;;;;;;1.87;1.20;;;;;;;23.77;21.61;100549.44;4461470;32;34068;-70
2022/05/19 08:22:51;;;;;;;2.80;1.30;;;;;;;24.37;22.97;100547.50;4457108;32;35965;-72
2022/05/19 08:25:24;;;;;;;1.70;0.98;;;;;;;24.15;22.52;100549.47;4469449;32;34470;-71
2022/05/19 08:27:56;;;;;;;1.45;1.00;;;;;;;24.41;20.89;100556.22;4457665;32;33448;-71
2022/05/19 08:30:26;;;;;;;2.60;0.88;;;;;;;24.66;20.43;100555.03;4469198;32;34872;-71
2022/05/19 08:32:55;;;;;;;1.58;1.00;;;;;;;24.56;21.87;100549.28;4456875;32;35237;-71
2022/05/19 08:35:24;;;;;;;3.83;1.15;;;;;;;25.25;21.93;100547.59;4461069;32;32571;-71
2022/05/19 08:37:52;;;;;;;5.65;1.30;;;;;;;24.92;21.69;100546.59;4470979;32;33580;-71
2022/05/19 08:40:20;;;;;;;1.27;0.93;;;;;;;24.51;22.32;100546.84;4455379;32;34723;-70
2022/05/19 08:42:55;;;;;;;1.40;0.90;;;;;;;24.33;23.26;100548.56;4457269;32;35086;-72
2022/05/19 08:45:30;;;;;;;3.22;1.10;;;;;;;25.16;20.33;100539.09;4455536;32;34332;-71
2022/05/19 08:48:06;;;;;;;3.53;1.05;;;;;;;24.84;20.61;100542.59;4457015;32;33671;-72
2022/05/19 08:51:01;;;;;;;1.95;1.02;;;;;;;25.24;19.70;100540.53;4449069;32;33990;-72
2022/05/19 08:53:35;;;;;;;1.80;1.10;;;;;;;25.87;19.86;100545.13;4443368;32;35900;-72
2022/05/19 08:56:17;;;;;;;1.92;1.12;;;;;;;24.36;20.63;100537.78;4470838;32;34651;-73
2022/05/19 08:59:00;;;;;;;2.28;0.90;;;;;;;25.38;20.33;100538.00;4447504;32;33583;-72
2022/05/19 09:01:31;;;;;;;3.45;1.25;;;;;;;24.84;19.28;100537.25;4455501;32;34832;-71
2022/05/19 09:04:16;;;;;;;1.85;0.93;;;;;;;25.77;22.16;100527.94;4455238;32;34421;-72
2022/05/19 09:09:54;;;;;;;3.03;1.48;;;;;;;26.27;18.16;100522.44;4455679;32;34326;-71
2022/05/19 09:12:23;;;;;;;1.90;1.00;;;;;;;25.65;18.91;100534.81;4456589;32;33195;-72
2022/05/19 09:14:53;;;;;;;1.15;0.73;;;;;;;25.52;19.54;100532.81;4455613;32;35212;-72
2022/05/19 09:17:25;;;;;;;2.47;0.82;;;;;;;26.04;20.34;100529.09;4456665;32;35157;-72
2022/05/19 09:20:00;;;;;;;2.20;1.25;;;;;;;26.78;21.31;100532.03;4443011;32;32993;-71
2022/05/19 09:22:33;;;;;;;1.30;0.80;;;;;;;25.70;21.91;100522.94;4455029;32;34005;-71
2022/05/19 09:25:07;;;;;;;7.03;1.50;;;;;;;26.28;19.98;100516.16;4457491;32;34980;-71
2022/05/19 09:27:40;;;;;;;3.08;0.88;;;;;;;26.72;20.59;100521.69;4444059;32;34509;-71
2022/05/19 09:30:46;;;;;;;1.75;1.10;;;;;;;26.65;21.58;100522.06;4455449;32;34460;-71
2022/05/19 09:33:20;;;;;;;1.80;1.00;;;;;;;27.02;20.88;100521.69;4459296;32;33707;-72
2022/05/19 09:35:54;;;;;;;3.60;0.85;;;;;;;26.43;20.97;100518.87;4455034;32;35017;-72
2022/05/19 09:38:35;;;;;;;1.87;1.05;;;;;;;26.61;20.46;100520.53;4443706;32;34518;-72
2022/05/19 09:41:22;;;;;;;1.85;0.82;;;;;;;26.18;19.85;100517.63;4450001;32;33518;-71
2022/05/19 09:43:55;;;;;;;4.68;0.80;;;;;;;26.03;22.38;100513.16;4455782;32;34783;-72
2022/05/19 09:46:36;;;;;;;3.03;1.50;;;;;;;27.23;19.60;100515.00;4469339;32;35057;-81
2022/05/19 09:49:06;;;;;;;2.72;1.27;;;;;;;27.33;18.83;100511.78;4456552;32;34998;-71
2022/05/19 09:51:42;;;;;;;1.12;0.80;;;;;;;27.83;24.07;100518.47;4455182;32;33136;-72
2022/05/19 09:54:12;;;;;;;3.12;1.00;;;;;;;26.84;20.21;100505.78;4450516;32;33900;-72
2022/05/19 09:56:51;;;;;;;3.65;0.88;;;;;;;27.40;19.51;100505.97;4451705;32;35028;-72
2022/05/19 09:59:22;;;;;;;3.95;0.90;;;;;;;26.89;17.25;100507.31;4453737;32;34447;-71
2022/05/19 10:02:02;;;;;;;13.68;2.78;;;;;;;27.37;19.39;100500.81;4467890;32;33344;-71
2022/05/19 10:04:37;;;;;;;10.57;1.77;;;;;;;26.54;22.03;100495.06;4456492;32;33823;-71
2022/05/19 10:07:24;;;;;;;3.95;1.17;;;;;;;27.01;21.75;100498.56;4469791;32;34465;-71
2022/05/19 10:09:56;;;;;;;2.00;1.02;;;;;;;26.75;18.89;100490.28;4464660;32;35267;-72
2022/05/19 10:12:29;;;;;;;6.28;1.30;;;;;;;27.13;19.15;100492.47;4456738;32;35455;-71
2022/05/19 10:15:05;;;;;;;2.97;1.00;;;;;;;26.66;20.34;100486.34;4469163;32;34422;-72
2022/05/19 10:17:50;;;;;;;2.05;1.00;;;;;;;27.03;18.57;100489.47;4456208;32;35220;-72
2022/05/19 10:20:25;;;;;;;1.42;0.90;;;;;;;26.45;18.55;100474.25;4468808;32;34442;-71
2022/05/19 10:23:19;;;;;;;1.77;1.10;;;;;;;26.98;16.95;100478.22;4459228;32;33735;-71
2022/05/19 10:26:35;;;;;;;4.00;0.80;;;;;;;26.28;18.86;100481.44;4460672;32;186923;-72
2022/05/19 10:33:39;;;;;;;2.67;0.77;;;;;;;26.57;17.55;100473.53;4444402;32;34631;-72
2022/05/19 10:36:19;;;;;;;2.75;1.00;;;;;;;26.43;17.37;100468.13;4353782;32;33155;-72
2022/05/19 10:39:12;;;;;;;1.37;0.82;;;;;;;25.88;20.37;100462.34;4387969;32;33935;-72
2022/05/19 10:41:51;;;;;;;3.72;0.80;;;;;;;26.22;20.46;100457.75;4466472;32;35485;-72
2022/05/19 10:44:48;;;;;;;1.77;0.85;;;;;;;27.18;20.81;100460.97;4456089;32;35208;-73
2022/05/19 10:47:36;;;;;;;1.50;1.00;;;;;;;25.98;18.19;100445.81;4469591;32;32153;-72
2022/05/19 10:50:08;;;;;;;14.35;0.90;;;;;;;26.08;19.03;100449.69;4454877;32;34038;-72
2022/05/19 10:52:55;;;;;;;2.65;1.00;;;;;;;25.87;21.06;100441.06;4453339;32;35894;-72
2022/05/19 10:55:46;;;;;;;6.03;1.20;;;;;;;26.32;20.84;100444.75;4468523;32;35274;-72
2022/05/19 10:58:55;;;;;;;4.32;1.50;;;;;;;26.23;18.50;100440.78;4457777;32;33403;-72
2022/05/19 11:01:49;;;;;;;3.67;1.00;;;;;;;25.74;18.90;100432.91;4454775;32;34812;-72
2022/05/19 11:04:56;;;;;;;3.58;1.10;;;;;;;26.37;17.36;100433.81;4442125;32;35115;-72
2022/05/19 11:07:27;;;;;;;6.55;1.50;;;;;;;27.20;22.71;100418.06;4435372;32;34998;-72
2022/05/19 11:10:11;;;;;;;1.42;0.68;;;;;;;26.96;20.20;100423.13;4469087;32;34224;-72
2022/05/19 11:12:53;;;;;;;3.75;1.02;;;;;;;27.74;21.20;100415.53;4454155;32;34001;-72
2022/05/19 11:15:36;;;;;;;1.50;1.08;;;;;;;27.28;18.59;100418.47;4454626;32;34817;-71
2022/05/19 11:18:29;;;;;;;2.35;0.80;;;;;;;26.96;18.64;100407.94;4455987;32;35100;-72
2022/05/19 11:21:06;;;;;;;1.05;0.77;;;;;;;27.85;18.33;100416.63;4441636;32;34261;-72
2022/05/19 11:23:40;;;;;;;4.45;1.05;;;;;;;25.89;18.05;100409.84;4454124;32;34673;-72
2022/05/19 11:26:23;;;;;;;2.78;0.80;;;;;;;26.49;17.61;100403.69;4460020;32;34740;-71
2022/05/19 11:29:10;;;;;;;3.35;1.10;;;;;;;26.71;19.89;100410.44;4442693;32;33019;-72
2022/05/19 11:31:46;;;;;;;6.10;0.93;;;;;;;26.91;16.00;100403.84;4462142;32;34235;-72
2022/05/19 11:34:38;;;;;;;2.00;1.25;;;;;;;27.20;17.57;100391.34;4454048;32;33492;-72
2022/05/19 11:37:30;;;;;;;1.15;1.00;;;;;;;27.00;19.44;100393.47;4452013;32;34376;-71
2022/05/19 11:40:20;;;;;;;1.75;0.90;;;;;;;27.45;16.47;100381.78;4455662;32;35328;-72
2022/05/19 11:42:58;;;;;;;1.95;0.90;;;;;;;27.36;14.93;100378.72;4440019;32;34241;-72
2022/05/19 11:45:33;;;;;;;3.22;1.02;;;;;;;27.08;17.17;100368.06;4441049;32;34870;-72
2022/05/19 11:57:37;;;;;;;2.62;0.80;;;;;;;27.48;16.97;100370.84;4460995;32;34008;-72
2022/05/19 12:00:08;;;;;;;3.58;0.95;;;;;;;26.71;19.07;100371.19;4455385;32;35823;-72
2022/05/19 12:02:49;;;;;;;3.85;0.95;;;;;;;26.24;18.37;100361.53;4454700;32;34812;-72
2022/05/19 12:05:38;;;;;;;2.12;0.90;;;;;;;26.80;18.79;100359.94;4439686;32;33426;-74
2022/05/19 12:08:27;;;;;;;2.97;1.20;;;;;;;26.89;18.05;100358.50;4454359;32;34109;-72
2022/05/19 12:11:40;;;;;;;1.73;0.90;;;;;;;26.74;16.75;100346.13;4458622;32;36011;-72
2022/05/19 12:14:13;;;;;;;1.37;0.88;;;;;;;26.24;19.51;100342.84;4441869;32;34338;-72
2022/05/19 12:16:55;;;;;;;10.68;1.60;;;;;;;26.84;18.11;100344.56;4469722;32;33643;-73
2022/05/19 12:19:37;;;;;;;1.45;0.88;;;;;;;26.58;18.74;100347.03;4446184;32;33173;-73
2022/05/19 12:22:23;;;;;;;2.92;0.73;;;;;;;26.77;18.76;100345.91;4451259;32;34192;-73
2022/05/19 12:25:01;;;;;;;1.30;0.77;;;;;;;26.17;18.63;100342.41;4471038;32;35196;-73